Página principal
METAR-TAF:

METAR-TAF

Aeroportos :

Beirute, Líbano

latitude: 33-49N, longitude: 035-29E, altura: 29 m

Observação actual do tempo

O boletim foi feito há 18 minutos, às 06:00 UTC
Vento 4 kt de oes-noroeste
Temperatura 24°C
Humidade 74%
Pressão 1011 hPa
Visibilidade: 8000 m
Nuvens fragmentadasa uma altura de 2200 ft

METAR: OLBA 260600Z 29004KT 8000 BKN022 24/19 Q1011 NOSIG

Hora: 09:18 (06:18 UTC)

Previsão

O boletim foi feito há 2 horas e 18 minutos, às 04:00 UTC
Previsão válida de 26 às 06 UTC a 27 às 12 UTC
Vento 10 kt de oes-noroeste com rajadas de 20 kt
Visibilidade: 7000 m
Nuvens dispersasa uma altura de 2600 ft
Nuvens dispersasa uma altura de 10000 ft
Tornando-se
de 26 às 21 UTC a 26 às 24 UTC
Vento 3 kt com direcção variável
Tornando-se
de 27 às 09 UTC a 27 às 12 UTC
Vento 12 kt de nor-noroeste

TAF: OLBA 260400Z 2606/2712 30010G20KT 7000 SCT026 SCT100 BECMG 2621/2624 VRB03KT BECMG 2709/2712 33012KT

Observações e previsões do tempo de mais de 4000 aeroportos (mensagens METAR e TAF).

As estações disponíveis são os pontos amarelos e vermelhos sobre o mapa.

Mova o rato sobre o mapa para ver o nome da estação.

Depois clique no ponto para visualizar as observações e previsões meteorológicas.

Para alterar o mapa : clique nos botões verdes com uma cruz preta para aumentar o zoom; no botão verde com uma pitada de zoom; ou nas setas verdes para mapas adjacentes.


METAR-TAF: